• Join FlightAware (Why Join?)
  • Login
  • US Flag 
12:14PM EDT


 

Airport Tracker/Info


-or-


 

Live Flight TrackerFlight Track Log ✈ UAL906 ✈ 20-Sep-2013 ✈ EDDF / FRA - KORD

Flight Track Log - Related Links

Times and Time Zones

All times are in EDT time to prevent confusion due to time zone crossing. See the UAL906 flight status page for this flight to view local times or setup timezone preferences in your user account.

Time Position Orientation Groundspeed Altitude Reporting Facility
EDT Latitude Longitude Course Direction KTS MPH feet Rate Location/Type
07:32AM 50.0430 8.5760 270° West 105 121  Level FlightAware
07:32AM 50.0380 8.5580 247° West 175 201 1,200 Level FlightAware
07:33AM 50.0320 8.5320 250° West 184 212 800 2,460 Climbing FlightAware
07:33AM 50.0280 8.5140 251° West 181 208 1,500 2,700 Climbing FlightAware
07:33AM 50.0280 8.5040 270° West 181 208 1,800 2,100 Climbing FlightAware
07:34AM 50.0290 8.4760 273° West 184 212 2,500 1,860 Climbing FlightAware
07:34AM 50.0300 8.4470 273° West 185 213 3,200 1,800 Climbing FlightAware
07:34AM 50.0280 8.4250 262° West 187 215 3,800 1,260 Climbing FlightAware
07:35AM 50.0250 8.3990 260° West 202 232 4,000 1,200 Climbing FlightAware
07:35AM 50.0190 8.3510 259° West 225 259 4,800 1,500 Climbing FlightAware
07:36AM 50.0140 8.3060 260° West 247 284 5,500 1,920 Climbing FlightAware
07:36AM 50.0200 8.2420 278° West 253 291 6,800 2,220 Climbing FlightAware
07:36AM 50.0300 8.2110 297° West 256 295 7,500 2,100 Climbing FlightAware
07:37AM 50.0410 8.1800 299° West 258 297 8,200 2,220 Climbing FlightAware
07:37AM 50.0480 8.1560 294° West 263 303 8,700 2,220 Climbing FlightAware
07:37AM 50.0660 8.1050 299° West 267 307 9,800 2,040 Climbing FlightAware
07:38AM 50.0800 8.0840 316° Northwest 274 315 10,300 1,380 Climbing FlightAware
07:38AM 50.1240 8.0370 326° Northwest 303 349 11,100 1,080 Climbing FlightAware
07:39AM 50.1710 7.9870 326° Northwest 331 381 11,800 1,080 Climbing FlightAware
07:40AM 50.2120 7.9420 325° Northwest 354 407 12,400 1,680 Climbing FlightAware
07:40AM 50.2660 7.8830 325° Northwest 357 411 13,800 1,980 Climbing FlightAware
07:41AM 50.3140 7.8320 326° Northwest 362 417 14,900 1,680 Climbing FlightAware
07:41AM 50.3630 7.7790 325° Northwest 370 426 15,800 1,560 Climbing FlightAware
07:42AM 50.4040 7.7350 326° Northwest 376 433 16,600 1,500 Climbing FlightAware
07:43AM 50.4600 7.6720 324° Northwest 386 444 17,600 1,680 Climbing FlightAware
07:43AM 50.5140 7.6120 325° Northwest 387 445 18,700 1,620 Climbing FlightAware
07:44AM 50.5580 7.5640 325° Northwest 389 448 19,400 1,260 Climbing FlightAware
07:44AM 50.6230 7.4930 325° Northwest 398 458 20,300 1,320 Climbing FlightAware
07:45AM 50.6770 7.4320 324° Northwest 399 459 21,200 1,440 Climbing FlightAware
07:46AM 50.7310 7.3720 325° Northwest 405 466 22,000 1,320 Climbing FlightAware
07:46AM 50.7840 7.3140 325° Northwest 407 468 22,800 1,260 Climbing FlightAware
07:47AM 50.8330 7.2590 325° Northwest 409 471 23,500 1,260 Climbing FlightAware
07:47AM 50.8920 7.1930 325° Northwest 414 476 24,300 1,200 Climbing FlightAware
07:48AM 50.9520 7.1260 325° Northwest 419 482 25,000 1,140 Climbing FlightAware
07:49AM 51.0090 7.0550 322° Northwest 423 487 25,700 1,020 Climbing FlightAware
07:49AM 51.0560 6.9960 322° Northwest 429 494 26,200 900 Climbing FlightAware
07:50AM 51.1040 6.9280 318° Northwest 432 497 26,700 960 Climbing FlightAware
07:50AM 51.1670 6.8520 323° Northwest 438 504 27,400 900 Climbing FlightAware
07:50AM 51.1830 6.8300 319° Northwest 435 501 27,500 840 Climbing FlightAware
07:51AM 51.2020 6.7780 300° West 438 504 27,800 840 Climbing FlightAware
07:51AM 51.2070 6.7470 284° West 441 507 27,900 720 Climbing FlightAware
07:51AM 51.2060 6.6520 269° West 449 517 28,300 840 Climbing FlightAware
07:52AM 51.2130 6.5210 275° West 450 518 28,900 780 Climbing FlightAware
07:53AM 51.2290 6.4100 283° West 453 521 29,300 720 Climbing FlightAware
07:53AM 51.2500 6.2840 285° West 457 526 29,800 1,020 Climbing FlightAware
07:54AM 51.2700 6.1690 286° West 455 524 30,600 1,200 Climbing FlightAware
07:54AM 51.3020 6.0610 295° West 449 517 31,300 1,320 Climbing FlightAware
07:55AM 51.3380 5.9710 303° West 444 511 32,100 1,200 Climbing FlightAware
07:56AM 51.3770 5.8730 303° West 442 509 32,700 960 Climbing FlightAware
07:56AM 51.4190 5.7680 303° West 440 506 33,300 900 Climbing FlightAware
07:57AM 51.4560 5.6740 302° West 438 504 33,800 600 Climbing FlightAware
07:57AM 51.4900 5.5870 302° West 440 506 34,000 120 Climbing FlightAware
07:58AM 51.5300 5.4860 303° West 440 506 34,000  Level FlightAware
07:59AM 51.5690 5.3880 303° West 441 507 34,000  Level FlightAware
07:59AM 51.5992 5.3002 303° West 484 557 34,000  Level FlightAware UK
07:59AM 51.6060 5.2910 303° West 441 507 34,000  Level FlightAware
08:00AM 51.6370 5.2130 303° West 441 507 34,000  Level FlightAware
08:00AM 51.6810 5.0990 302° West 440 506 34,000  Level FlightAware
08:01AM 51.7220 4.9920 302° West 440 506 34,000  Level FlightAware
08:01AM 51.7560 4.9040 302° West 440 506 34,000  Level FlightAware
08:02AM 51.7940 4.8030 301° West 440 506 34,000  Level FlightAware
08:03AM 51.8340 4.7110 305° West 441 507 34,000  Level FlightAware
08:03AM 51.8680 4.6660 321° Northwest 445 512 34,000  Level FlightAware
08:04AM 51.9280 4.6070 321° Northwest 482 555 34,000  Level FlightAware UK
08:04AM 51.9320 4.6050 321° Northwest 447 514 34,000  Level FlightAware
08:04AM 52.0010 4.5420 331° Northwest 447 514 34,000  Level FlightAware
08:05AM 52.0680 4.4790 330° Northwest 448 516 34,000  Level FlightAware
08:05AM 52.1370 4.4150 330° Northwest 447 514 34,000  Level FlightAware
08:06AM 52.1950 4.3650 332° Northwest 449 517 34,000  Level FlightAware
08:07AM 52.2570 4.3110 332° Northwest 448 516 34,000  Level FlightAware
08:07AM 52.3209 4.2566 332° Northwest 482 555 34,000  Level FlightAware UK
08:07AM 52.3260 4.2510 332° Northwest 449 517 34,000  Level FlightAware
08:08AM 52.3866 4.1991 332° Northwest 484 557 34,000  Level FlightAware UK
08:08AM 52.3930 4.1920 332° Northwest 449 517 34,000  Level FlightAware
08:08AM 52.4520 4.1410 332° Northwest 449 517 34,000  Level FlightAware
08:09AM 52.5170 4.0850 332° Northwest 449 517 34,000  Level FlightAware
08:09AM 52.5780 4.0300 331° Northwest 449 517 34,000  Level FlightAware
08:10AM 52.6510 3.9670 332° Northwest 449 517 34,000  Level FlightAware
08:11AM 52.7050 3.9190 332° Northwest 450 518 34,000  Level FlightAware
08:11AM 52.7700 3.8610 332° Northwest 450 518 34,000  Level FlightAware
08:12AM 52.8380 3.8000 332° Northwest 450 518 34,000  Level FlightAware
08:12AM 52.9000 3.7450 332° Northwest 450 518 34,000  Level FlightAware
08:13AM 52.9610 3.6900 331° Northwest 450 518 34,000  Level FlightAware
08:14AM 53.0226 3.6358 331° Northwest 482 555 34,000  Level FlightAware UK
08:14AM 53.0280 3.6300 331° Northwest 450 518 34,000  Level FlightAware
08:14AM 53.0900 3.5740 332° Northwest 451 519 34,000  Level FlightAware
08:15AM 53.1580 3.5120 331° Northwest 451 519 34,000  Level FlightAware
08:15AM 53.2100 3.4650 332° Northwest 450 518 34,000  Level FlightAware
08:16AM 53.2770 3.4140 336° Northwest 451 519 34,000  Level FlightAware
08:17AM 53.3550 3.3680 341° North 451 519 34,000  Level FlightAware
08:17AM 53.4160 3.3330 341° North 451 519 34,000  Level FlightAware
08:18AM 53.4780 3.2970 341° North 450 518 34,000  Level FlightAware
08:18AM 53.5590 3.2500 341° North 450 518 34,000  Level FlightAware
08:19AM 53.6260 3.2110 341° North 449 517 34,000  Level FlightAware
08:19AM 53.6770 3.1960 350° North 457 526 34,000  Level FlightAware
08:20AM 53.7420 3.2030 North 467 537 34,000  Level FlightAware
08:20AM 53.8140 3.2160 North 466 536 34,000  Level FlightAware
08:21AM 53.8910 3.2310 North 466 536 34,000  Level FlightAware
08:21AM 53.9670 3.2450 North 467 537 34,000  Level FlightAware
08:22AM 54.0530 3.2610 North 466 536 34,000  Level FlightAware
08:23AM 54.1250 3.2750 North 466 536 34,000  Level FlightAware
08:23AM 54.2070 3.2900 North 465 535 34,000  Level FlightAware
08:24AM 54.2850 3.3030 North 454 522 34,000  Level FlightAware
08:24AM 54.3400 3.2980 357° North 455 524 34,000  Level FlightAware
08:25AM 54.4190 3.2630 346° North 446 513 34,000  Level FlightAware
08:26AM 54.4900 3.2220 341° North 448 516 34,000  Level FlightAware
08:26AM 54.5480 3.1880 341° North 446 513 34,000  Level FlightAware
08:27AM 54.6304 3.1401 341° North 482 555 34,000  Level FlightAware UK
08:27AM 54.6550 3.1250 341° North 335 386 34,000  Level FlightAware
08:28AM 54.7230 3.0840 341° North 447 514 34,000  Level FlightAware
08:28AM 54.7990 3.0390 341° North 448 516 34,000  Level FlightAware
08:29AM 54.8640 3.0000 341° North 448 516 34,000  Level FlightAware
08:29AM 54.9340 2.9580 341° North 448 516 34,000  Level FlightAware
08:30AM 55.0070 2.9150 341° North 448 516 34,000  Level FlightAware
08:31AM 55.0650 2.8800 341° North 447 514 34,000  Level FlightAware
08:31AM 55.1380 2.8360 341° North 440 506 34,000  Level FlightAware
08:32AM 55.2070 2.7940 341° North 441 507 34,000  Level FlightAware
08:32AM 55.2750 2.7530 341° North 441 507 34,000  Level FlightAware
08:33AM 55.3430 2.7110 341° North 442 509 34,000 180 Level FlightAware
08:33AM 55.4020 2.6750 341° North 444 511 34,200 360 Climbing FlightAware
08:34AM 55.4880 2.6220 341° North 456 525 34,500 600 Climbing FlightAware
08:35AM 55.5600 2.5780 341° North 446 513 35,000 840 Climbing FlightAware
08:35AM 55.6420 2.5270 341° North 448 516 35,600 600 Climbing FlightAware
08:36AM 55.7060 2.4870 341° North 449 517 35,800 300 Climbing FlightAware
08:37AM 55.7750 2.4440 341° North 451 519 36,000 120 Climbing FlightAware
08:37AM 55.8402 2.4020 341° North 484 557 36,000  Level FlightAware UK
08:37AM 55.8390 2.4040 341° North 452 520 36,000  Level FlightAware
08:38AM 55.8989 2.3635 341° North 482 555 36,000  Level FlightAware UK
08:38AM 55.9050 2.3580 341° North 449 517 36,000  Level FlightAware
08:38AM 55.9790 2.2990 336° Northwest 449 517 36,000  Level FlightAware
08:39AM 56.0460 2.2450 336° Northwest 450 518 36,000  Level FlightAware
08:40AM 56.1130 2.1890 335° Northwest 450 518 36,000  Level FlightAware
08:40AM 56.1870 2.1280 335° Northwest 443 510 36,000  Level FlightAware
08:41AM 56.2500 2.0770 336° Northwest 444 511 36,000  Level FlightAware
08:41AM 56.3140 2.0230 335° Northwest 442 509 36,000  Level FlightAware
08:42AM 56.3853 1.9626 335° Northwest 484 557 36,000  Level FlightAware UK
08:42AM 56.3830 1.9660 335° Northwest 442 509 36,000  Level FlightAware
08:43AM 56.4510 1.9090 335° Northwest 443 510 36,000  Level FlightAware
08:43AM 56.5092 1.8591 335° Northwest 488 562 36,000  Level FlightAware UK
08:43AM 56.5230 1.8490 335° Northwest 451 519 36,000  Level FlightAware
08:44AM 56.5790 1.8050 337° Northwest 452 520 36,000  Level FlightAware
08:44AM 56.6530 1.7490 337° Northwest 452 520 36,000  Level FlightAware
08:45AM 56.7220 1.7000 339° North 452 520 36,000  Level FlightAware
08:45AM 56.7840 1.6550 338° Northwest 451 519 36,000  Level FlightAware
08:46AM 56.8560 1.6030 338° Northwest 449 517 36,000  Level FlightAware
08:47AM 56.9360 1.5450 338° Northwest 450 518 36,000  Level FlightAware
08:47AM 57.0040 1.4950 338° Northwest 449 517 36,000  Level FlightAware
08:48AM 57.0710 1.4460 338° Northwest 449 517 36,000  Level FlightAware
08:48AM 57.1380 1.3960 338° Northwest 449 517 36,000  Level FlightAware
08:49AM 57.2060 1.3450 338° Northwest 449 517 36,000  Level FlightAware
08:50AM 57.2720 1.2960 338° Northwest 450 518 36,000  Level FlightAware
08:50AM 57.3500 1.2370 338° Northwest 450 518 36,000  Level FlightAware
08:51AM 57.4150 1.1880 338° Northwest 451 519 36,000  Level FlightAware
08:51AM 57.4850 1.1350 338° Northwest 452 520 36,000  Level FlightAware
08:52AM 57.5610 1.0770 338° Northwest 452 520 36,000  Level FlightAware
08:53AM 57.6240 1.0290 338° Northwest 453 521 36,000  Level FlightAware
08:53AM 57.6980 0.9720 338° Northwest 455 524 36,000  Level FlightAware
08:54AM 57.7740 0.9140 338° Northwest 456 525 36,000  Level FlightAware
08:55AM 57.8520 0.8530 337° Northwest 456 525 36,000  Level FlightAware
08:55AM 57.9190 0.8010 338° Northwest 450 518 36,000  Level FlightAware
08:56AM 57.9840 0.7510 338° Northwest 450 518 36,000  Level FlightAware
08:56AM 58.0540 0.6960 337° Northwest 450 518 36,000  Level FlightAware
08:57AM 58.1260 0.6390 337° Northwest 451 519 36,000  Level FlightAware
08:58AM 58.1930 0.5860 337° Northwest 452 520 36,000  Level FlightAware
08:58AM 58.2600 0.5330 337° Northwest 452 520 36,000  Level FlightAware
08:59AM 58.3320 0.4760 337° Northwest 451 519 36,000  Level FlightAware
08:59AM 58.4000 0.4210 337° Northwest 451 519 36,000  Level FlightAware
09:00AM 58.4660 0.3680 337° Northwest 451 519 36,000  Level FlightAware
09:00AM 58.5340 0.3130 337° Northwest 452 520 36,000  Level FlightAware
09:01AM 58.6000 0.2590 337° Northwest 452 520 36,000  Level FlightAware
09:02AM 58.6693 0.2034 337° Northwest 482 555 36,000  Level FlightAware UK
09:02AM 58.7010 0.1770 337° Northwest 453 521 36,000  Level FlightAware
09:02AM 58.7628 0.1271 337° Northwest 482 555 36,000  Level FlightAware UK
09:02AM 58.7660 0.1240 337° Northwest 453 521 36,000  Level FlightAware
09:03AM 58.8380 0.0640 337° Northwest 455 524 36,000  Level FlightAware
09:04AM 58.9070 0.0080 337° Northwest 455 524 36,000  Level FlightAware
09:04AM 58.9760 -0.0500 337° Northwest 457 526 36,000  Level FlightAware
09:05AM 59.0630 -0.1220 337° Northwest 458 527 36,000  Level FlightAware
09:05AM 59.1240 -0.1740 336° Northwest 458 527 36,000  Level FlightAware
09:06AM 59.1877 -0.2271 336° Northwest 486 559 36,000  Level FlightAware UK
09:06AM 59.1930 -0.2310 336° Northwest 458 527 36,000  Level FlightAware
09:07AM 59.2620 -0.2890 337° Northwest 459 528 36,000  Level FlightAware
09:07AM 59.3300 -0.3480 336° Northwest 459 528 36,000  Level FlightAware
09:08AM 59.4004 -0.4076 336° Northwest 486 559 36,000  Level FlightAware UK
09:08AM 59.4000 -0.4080 336° Northwest 458 527 36,000  Level FlightAware
09:08AM 59.4712 -0.4686 336° Northwest 486 559 36,000  Level FlightAware UK
09:08AM 59.4690 -0.4660 336° Northwest 458 527 36,000  Level FlightAware
09:09AM 59.5380 -0.5260 336° Northwest 457 526 36,000  Level FlightAware
09:10AM 59.6122 -0.5901 336° Northwest 486 559 36,000  Level FlightAware UK
09:10AM 59.6000 -0.5800 336° Northwest 464 534 36,000  Level FlightAware
09:10AM 59.6710 -0.6410 337° Northwest 464 534 36,000  Level FlightAware
09:11AM 59.7180 -0.6820 336° Northwest 464 534 36,000  Level FlightAware
09:11AM 59.8210 -0.7720 336° Northwest 464 534 36,000  Level FlightAware
09:12AM 59.8900 -0.8330 336° Northwest 464 534 36,000  Level FlightAware
09:13AM 59.9570 -0.8920 336° Northwest 464 534 36,000  Level FlightAware
09:13AM 60.0170 -0.9460 336° Northwest 464 534 36,000  Level FlightAware
09:14AM 60.0770 -0.9990 336° Northwest 464 534 36,000  Level FlightAware
09:15AM 60.1380 -1.0540 336° Northwest 464 534 36,000  Level FlightAware
09:15AM 60.2620 -1.1650 336° Northwest 36,000  Level FlightAware
09:16AM 60.3290 -1.2260 336° Northwest 469 540 36,000  Level FlightAware
09:16AM 60.3890 -1.2800 336° Northwest 469 540 36,000  Level FlightAware
09:17AM 60.4500 -1.3350 336° Northwest 469 540 36,000  Level FlightAware
09:18AM 60.5120 -1.3910 336° Northwest 469 540 36,000  Level FlightAware
09:18AM 60.6160 -1.4890 335° Northwest 469 540 36,000  Level FlightAware
09:19AM 60.6920 -1.5620 335° Northwest 469 540 36,000  Level FlightAware
09:19AM 60.7680 -1.6310 336° Northwest 468 539 36,000  Level FlightAware
09:20AM 60.8280 -1.6870 336° Northwest 459 528 36,000  Level FlightAware
09:21AM 60.8900 -1.7490 334° Northwest 459 528 36,000  Level FlightAware
09:21AM 60.9750 -1.8290 335° Northwest 461 531 36,000  Level FlightAware
09:22AM 61.0210 -1.9020 322° Northwest 453 521 36,000  Level FlightAware
09:22AM 61.0710 -2.0130 313° West 451 519 36,000  Level FlightAware
09:23AM 61.1170 -2.1180 312° West 451 519 36,000  Level FlightAware
09:23AM 61.1680 -2.2360 312° West 452 520 36,000  Level FlightAware
09:24AM 61.2180 -2.3540 311° West 451 519 36,000  Level FlightAware
09:25AM 61.2680 -2.4700 312° West 452 520 36,000  Level FlightAware
09:25AM 61.3150 -2.5810 311° West 453 521 36,000  Level FlightAware
09:26AM 61.3600 -2.6860 312° West 454 522 36,000  Level FlightAware
09:26AM 61.4100 -2.8060 311° West 455 524 36,000  Level FlightAware
09:27AM 61.4550 -2.9120 312° West 455 524 36,000  Level FlightAware
09:28AM 61.5070 -3.0380 311° West 457 526 36,000  Level FlightAware
09:28AM 61.5550 -3.1520 312° West 456 525 36,000  Level FlightAware
09:29AM 61.5950 -3.2500 311° West 456 525 36,000  Level FlightAware
09:29AM 61.6440 -3.3680 311° West 456 525 36,000  Level FlightAware
09:30AM 61.6800 -3.4550 311° West 458 527 36,000  Level FlightAware
09:30AM 61.7350 -3.5910 311° West 459 528 36,000  Level FlightAware
09:31AM 61.7860 -3.7180 310° West 459 528 36,000  Level FlightAware
09:32AM 61.8450 -3.8640 311° West 460 529 36,000  Level FlightAware
09:32AM 61.8920 -3.9810 310° West 461 531 36,000  Level FlightAware
09:33AM 61.9410 -4.1050 310° West 461 531 36,000  Level FlightAware
09:33AM 61.9920 -4.2330 310° West 462 532 36,000  Level FlightAware
09:34AM 62.0370 -4.3490 310° West 462 532 36,000  Level FlightAware
09:34AM 62.0840 -4.4680 310° West 463 533 36,000  Level FlightAware
09:35AM 62.1330 -4.5940 310° West 463 533 36,000  Level FlightAware
09:36AM 62.1770 -4.7070 310° West 463 533 36,000  Level FlightAware
09:36AM 62.2260 -4.8340 310° West 463 533 36,000  Level FlightAware
09:37AM 62.2750 -4.9610 310° West 464 534 36,000  Level FlightAware
09:37AM 62.3270 -5.0990 309° West 468 539 36,000  Level FlightAware
09:38AM 62.3710 -5.2140 310° West 469 540 36,000  Level FlightAware
09:39AM 62.4200 -5.3460 309° West 470 541 36,000  Level FlightAware
09:39AM 62.4690 -5.4770 309° West 470 541 36,000  Level FlightAware
09:40AM 62.5110 -5.5900 309° West 470 541 36,000  Level FlightAware
09:40AM 62.5610 -5.7240 309° West 471 542 36,000  Level FlightAware
09:41AM 62.6100 -5.8580 309° West 471 542 36,000  Level FlightAware
09:41AM 62.6530 -5.9750 309° West 472 543 36,000  Level FlightAware
09:42AM 62.7020 -6.1100 308° West 472 543 36,000  Level FlightAware
09:43AM 62.7530 -6.2490 309° West 473 544 36,000  Level FlightAware
09:43AM 62.7970 -6.3720 308° West 474 545 36,000  Level FlightAware
09:44AM 62.8450 -6.5060 308° West 475 547 36,000  Level FlightAware
09:44AM 62.8930 -6.6410 308° West 476 548 36,000  Level FlightAware
09:45AM 62.9410 -6.7780 308° West 476 548 36,000  Level FlightAware
09:46AM 62.9900 -6.9160 308° West 476 548 36,000  Level FlightAware
09:46AM 63.0330 -7.0410 307° West 477 549 36,000  Level FlightAware
09:47AM 63.0810 -7.1770 308° West 477 549 36,000  Level FlightAware
09:47AM 63.1300 -7.3180 308° West 477 549 36,000  Level FlightAware
09:48AM 63.1770 -7.4560 307° West 478 550 36,000  Level FlightAware
09:48AM 63.2150 -7.5680 307° West 478 550 36,000  Level FlightAware
09:49AM 63.2610 -7.7040 307° West 478 550 36,000  Level FlightAware
09:50AM 63.3310 -7.9150 307° West 479 551 36,000  Level FlightAware
09:51AM 63.3710 -8.0380 306° West 479 551 36,000  Level FlightAware
09:51AM 63.4110 -8.1600 306° West 479 551 36,000  Level FlightAware
09:52AM 63.4510 -8.2830 306° West 479 551 36,000  Level FlightAware
09:52AM 63.4910 -8.4060 306° West 479 551 36,000  Level FlightAware
09:53AM 63.5310 -8.5290 306° West 479 551 36,000  Level FlightAware
09:54AM 63.5720 -8.6560 306° West 479 551 36,000  Level FlightAware
09:54AM 63.6690 -8.9410 308° West 488 562 36,000  Level FlightAware
09:55AM 63.7180 -9.0970 305° West 488 562 36,000  Level FlightAware
09:55AM 63.7630 -9.2380 306° West 488 562 36,000  Level FlightAware
09:56AM 63.8100 -9.3870 306° West 490 564 36,000  Level FlightAware
09:57AM 63.8580 -9.5410 305° West 491 565 36,000  Level FlightAware
09:57AM 63.9010 -9.6770 306° West 492 566 36,000  Level FlightAware
09:58AM 63.9410 -9.8080 305° West 492 566 36,000  Level FlightAware
09:58AM 63.9830 -9.9500 304° West 490 564 36,000  Level FlightAware
09:59AM 64.0240 -10.1040 301° West 490 564 36,000  Level FlightAware
09:59AM 64.0610 -10.2440 301° West 490 564 36,000  Level FlightAware
10:00AM 64.0620 -10.4520 271° West 481 554 36,000  Level FlightAware
10:00AM 64.0810 -10.5980 287° West 481 554 36,000  Level FlightAware
10:01AM 64.1050 -10.7780 287° West 481 554 36,000  Level FlightAware
10:02AM 64.1280 -10.9460 287° West 482 555 36,000  Level FlightAware
10:02AM 64.1530 -11.1410 286° West 483 556 36,000  Level FlightAware
10:03AM 64.1730 -11.2950 287° West 482 555 36,000  Level FlightAware
10:03AM 64.1960 -11.4740 287° West 483 556 36,000  Level FlightAware
10:04AM 64.2200 -11.6700 286° West 482 555 36,000  Level FlightAware
10:05AM 64.2390 -11.8200 286° West 482 555 36,000  Level FlightAware
10:05AM 64.2580 -11.9710 286° West 482 555 36,000  Level FlightAware
10:06AM 64.2950 -12.2840 285° West 483 556 36,000  Level FlightAware
10:07AM 64.3130 -12.4370 285° West 483 556 36,000  Level FlightAware
10:07AM 64.3390 -12.6470 286° West 487 560 36,000  Level FlightAware
10:08AM 64.3600 -12.8240 285° West 488 562 36,000  Level FlightAware
10:09AM 64.3810 -13.0090 285° West 489 563 36,000  Level FlightAware
10:09AM 64.4000 -13.1720 285° West 490 564 36,000  Level FlightAware
10:10AM 64.4250 -13.3970 285° West 490 564 36,000  Level FlightAware
10:10AM 64.4450 -13.5760 285° West 490 564 36,000  Level FlightAware
10:11AM 64.4610 -13.7260 284° West 490 564 36,000  Level FlightAware
10:12AM 64.4810 -13.9120 284° West 489 563 36,000  Level FlightAware
10:12AM 64.4990 -14.0760 284° West 489 563 36,000  Level FlightAware
10:13AM 64.5180 -14.2580 284° West 490 564 36,000  Level FlightAware
10:13AM 64.5380 -14.4510 284° West 492 566 36,000  Level FlightAware
10:14AM 64.5570 -14.6340 284° West 491 565 36,000  Level FlightAware
10:15AM 64.5750 -14.8100 283° West 491 565 36,000  Level FlightAware
10:15AM 64.5920 -14.9780 283° West 491 565 36,000  Level FlightAware
10:16AM 64.6100 -15.1640 283° West 490 564 36,000  Level FlightAware
10:16AM 64.6280 -15.3520 283° West 491 565 36,000  Level FlightAware
10:17AM 64.6450 -15.5260 283° West 491 565 36,000  Level FlightAware
10:17AM 64.6620 -15.7030 283° West 490 564 36,000  Level FlightAware
10:18AM 64.6790 -15.8840 282° West 489 563 36,000  Level FlightAware
10:19AM 64.6950 -16.0600 282° West 488 562 36,000  Level FlightAware
10:19AM 64.7120 -16.2480 282° West 488 562 36,000  Level FlightAware
10:20AM 64.7260 -16.4030 282° West 488 562 36,000  Level FlightAware
10:20AM 64.7450 -16.6110 282° West 488 562 36,000  Level FlightAware
10:21AM 64.7590 -16.7770 281° West 487 560 36,000  Level FlightAware
10:21AM 64.7750 -16.9660 281° West 489 563 36,000  Level FlightAware
10:22AM 64.7900 -17.1470 281° West 491 565 36,000  Level FlightAware
10:23AM 64.8060 -17.3400 281° West 491 565 36,000  Level FlightAware
10:23AM 64.8210 -17.5120 282° West 490 564 36,000  Level FlightAware
10:24AM 64.8360 -17.7010 281° West 489 563 36,000  Level FlightAware
10:24AM 64.8490 -17.8700 280° West 489 563 36,000  Level FlightAware
10:25AM 64.8650 -18.0690 281° West 490 564 36,000  Level FlightAware
10:26AM 64.8770 -18.2370 280° West 492 566 36,000  Level FlightAware
10:26AM 64.8920 -18.4330 280° West 493 567 36,000  Level FlightAware
10:27AM 64.9050 -18.6140 280° West 493 567 36,000  Level FlightAware
10:27AM 64.9160 -18.7620 280° West 494 568 36,000  Level FlightAware
10:28AM 64.9280 -18.9290 280° West 493 567 36,000  Level FlightAware
10:28AM 64.9430 -19.1350 280° West 494 568 36,000  Level FlightAware
10:29AM 64.9560 -19.3320 279° West 494 568 36,000  Level FlightAware
10:30AM 64.9690 -19.5230 279° West 494 568 36,000  Level FlightAware
10:30AM 64.9820 -19.7160 279° West 495 570 36,000  Level FlightAware
10:31AM 64.9910 -19.8600 278° West 496 571 36,000  Level FlightAware
10:31AM 65.0020 -20.0750 277° West 496 571 36,000  Level FlightAware
10:32AM 65.0090 -20.2720 275° West 495 570 36,000  Level FlightAware
10:32AM 65.0150 -20.4520 275° West 495 570 36,000  Level FlightAware
10:33AM 65.0200 -20.6360 274° West 495 570 36,000  Level FlightAware
10:34AM 65.0260 -20.8310 274° West 494 568 36,000  Level FlightAware
10:34AM 65.0300 -21.0030 273° West 494 568 36,000  Level FlightAware
10:35AM 65.0350 -21.1860 274° West 495 570 36,000  Level FlightAware
10:35AM 65.0400 -21.3920 273° West 495 570 36,000  Level FlightAware
10:36AM 65.0450 -21.5870 274° West 496 571 36,000  Level FlightAware
10:37AM 65.0490 -21.7670 273° West 495 570 36,000  Level FlightAware
10:37AM 65.0530 -21.9750 273° West 494 568 36,000  Level FlightAware
10:38AM 65.0560 -22.1480 272° West 495 570 36,000  Level FlightAware
10:38AM 65.0600 -22.3440 273° West 495 570 36,000  Level FlightAware
10:39AM 65.0630 -22.5360 272° West 495 570 36,000  Level FlightAware
10:39AM 65.0660 -22.7230 272° West 495 570 36,000  Level FlightAware
10:40AM 65.0690 -22.9160 272° West 494 568 36,000  Level FlightAware
10:41AM 65.0720 -23.1090 272° West 494 568 36,000  Level FlightAware
10:41AM 65.0740 -23.2810 272° West 494 568 36,000  Level FlightAware
10:42AM 65.0760 -23.4670 272° West 495 570 36,000  Level FlightAware
10:42AM 65.0780 -23.6570 272° West 496 571 36,000  Level FlightAware
10:43AM 65.0790 -23.8540 271° West 496 571 36,000  Level FlightAware
10:44AM 65.0810 -24.0360 272° West 497 572 36,000  Level FlightAware
10:44AM 65.0820 -24.2440 271° West 497 572 36,000  Level FlightAware
10:45AM 65.0820 -24.4150 270° West 497 572 36,000  Level FlightAware
10:45AM 65.0830 -24.6450 271° West 498 573 36,000  Level FlightAware
10:46AM 65.0830 -24.9190 270° West 498 573 36,000  Level FlightAware
10:47AM 65.0840 -25.1780 271° West 499 574 36,000  Level FlightAware
10:48AM 65.0830 -25.4090 270° West 500 575 36,000  Level FlightAware
10:48AM 65.0830 -25.5910 270° West 500 575 36,000  Level FlightAware
10:49AM 65.0810 -25.7900 269° West 500 575 36,000  Level FlightAware
10:50AM 65.0800 -25.9580 269° West 500 575 36,000  Level FlightAware
10:50AM 65.0790 -26.1310 269° West 500 575 36,000  Level FlightAware
10:51AM 65.0770 -26.2990 268° West 500 575 36,000  Level FlightAware
10:51AM 65.0760 -26.4720 269° West 500 575 36,000  Level FlightAware
10:52AM 65.0750 -26.6390 269° West 500 575 36,000  Level FlightAware
10:53AM 65.0740 -26.8070 269° West 500 575 36,000  Level FlightAware
10:53AM 65.0720 -26.9750 268° West 500 575 36,000  Level FlightAware
10:54AM 65.0710 -27.1670 269° West 500 575 36,000  Level FlightAware
10:55AM 65.0700 -27.3390 269° West 500 575 36,000  Level FlightAware
10:55AM 65.0680 -27.5120 269° West 500 575 36,000  Level FlightAware
10:56AM 65.0670 -27.6800 269° West 500 575 36,000  Level FlightAware
10:56AM 65.0660 -27.8520 269° West 500 575 36,000  Level FlightAware
10:57AM 65.0640 -28.0200 268° West 500 575 36,000  Level FlightAware
10:58AM 65.0630 -28.1930 269° West 500 575 36,000  Level FlightAware
10:58AM 65.0620 -28.3600 269° West 500 575 36,000  Level FlightAware
10:59AM 65.0280 -29.0500 264° West 497 572 36,000  Level FlightAware
11:00AM 65.0230 -29.2660 267° West 497 572 36,000  Level FlightAware
11:00AM 65.0180 -29.4300 266° West 497 572 36,000  Level FlightAware
11:01AM 65.0090 -29.6940 266° West 498 573 36,000  Level FlightAware
11:02AM 65.0030 -29.9050 266° West 499 574 36,000  Level FlightAware
11:02AM 64.9940 -30.1010 264° West 501 577 36,000  Level FlightAware
11:03AM 64.9790 -30.3290 261° West 504 580 36,000  Level FlightAware
11:03AM 64.9670 -30.5090 261° West 505 581 36,000  Level FlightAware
11:04AM 64.9510 -30.7330 261° West 506 582 36,000  Level FlightAware
11:05AM 64.9380 -30.9310 261° West 507 583 36,000  Level FlightAware
11:05AM 64.9250 -31.1200 261° West 507 583 36,000  Level FlightAware
11:06AM 64.9100 -31.3220 260° West 508 585 36,000  Level FlightAware
11:06AM 64.8990 -31.4750 260° West 508 585 36,000  Level FlightAware
11:07AM 64.8870 -31.6320 260° West 508 585 36,000  Level FlightAware
11:08AM 64.8740 -31.8090 260° West 508 585 36,000  Level FlightAware
11:08AM 64.8610 -31.9750 260° West 508 585 36,000  Level FlightAware
11:09AM 64.8490 -32.1420 260° West 508 585 36,000  Level FlightAware
11:09AM 64.8370 -32.2990 260° West 508 585 36,000  Level FlightAware
11:10AM 64.8240 -32.4700 260° West 508 585 36,000  Level FlightAware
11:11AM 64.8110 -32.6420 260° West 508 585 36,000  Level FlightAware
11:11AM 64.7990 -32.8080 260° West 508 585 36,000  Level FlightAware
11:12AM 64.7860 -32.9740 260° West 508 585 36,000  Level FlightAware
11:12AM 64.7740 -33.1310 260° West 508 585 36,000  Level FlightAware
11:13AM 64.7610 -33.3020 260° West 508 585 36,000  Level FlightAware
11:14AM 64.7480 -33.4770 260° West 508 585 36,000  Level FlightAware
11:14AM 64.7360 -33.6430 260° West 508 585 36,000  Level FlightAware
11:15AM 64.7230 -33.8090 260° West 508 585 36,000  Level FlightAware
11:15AM 64.7110 -33.9750 260° West 508 585 36,000  Level FlightAware
11:18AM 64.6619 -34.5854 260° West  Level Estimated
11:19AM 64.6369 -34.8847 259° West  Level Estimated
11:20AM 64.6112 -35.1835 259° West  Level Estimated
11:21AM 64.5850 -35.4818 259° West  Level Estimated
11:22AM 64.5581 -35.7794 258° West  Level Estimated
11:23AM 64.5307 -36.0765 258° West  Level Estimated
11:24AM 64.5026 -36.3729 258° West  Level Estimated
11:25AM 64.4740 -36.6688 257° West  Level Estimated
11:26AM 64.4447 -36.9640 257° West  Level Estimated
11:27AM 64.4149 -37.2586 257° West  Level Estimated
11:28AM 64.3845 -37.5525 257° West  Level Estimated
11:29AM 64.3535 -37.8458 256° West  Level Estimated
11:30AM 64.3219 -38.1384 256° West  Level Estimated
11:31AM 64.2897 -38.4303 256° West  Level Estimated
11:32AM 64.2570 -38.7216 256° West  Level Estimated
11:33AM 64.2236 -39.0121 255° West  Level Estimated
11:34AM 64.1897 -39.3020 255° West  Level Estimated
11:35AM 64.1552 -39.5911 255° West  Level Estimated
11:36AM 64.1202 -39.8795 255° West  Level Estimated
11:37AM 64.0846 -40.1672 254° West  Level Estimated
11:38AM 64.0484 -40.4541 254° West  Level Estimated
11:39AM 64.0116 -40.7403 254° West  Level Estimated
11:40AM 63.9752 -41.0187 254° West  Level Estimated
11:41AM 63.9383 -41.2963 253° West  Level Estimated
11:42AM 63.9009 -41.5732 253° West  Level Estimated
11:43AM 63.8629 -41.8494 253° West  Level Estimated
11:44AM 63.8244 -42.1248 253° West  Level Estimated
11:45AM 63.7854 -42.3995 252° West  Level Estimated
11:46AM 63.7459 -42.6734 252° West  Level Estimated
11:47AM 63.7058 -42.9465 252° West  Level Estimated
11:48AM 63.6652 -43.2188 252° West  Level Estimated
11:49AM 63.6242 -43.4904 251° West  Level Estimated
11:50AM 63.5826 -43.7612 251° West  Level Estimated
11:50AM 63.2167 -44.5167 250° West 490 564 36,000  Level Gander Center
11:51AM 63.5405 -44.0312 251° West  Level Estimated
11:51AM 63.1500 -44.7667 240° Southwest 490 564 36,000  Level Gander Center
11:52AM 63.4979 -44.3003 251° West  Level Estimated
11:52AM 63.1000 -45.0667 250° West 500 575 36,000  Level Gander Center
11:53AM 63.4548 -44.5687 250° West  Level Estimated
11:53AM 63.0500 -45.3167 246° West 500 575 36,000  Level Gander Center
11:54AM 63.4111 -44.8363 250° West  Level Estimated
11:54AM 63.0000 -45.6000 249° West 500 575 36,000  Level Gander Center
11:55AM 63.3670 -45.1030 250° West  Level Estimated
11:55AM 62.9333 -45.9000 244° Southwest 500 575 36,000  Level Gander Center
11:56AM 63.3224 -45.3689 250° West  Level Estimated
11:56AM 62.8833 -46.1500 246° West 500 575 36,000  Level Gander Center
11:57AM 62.8167 -46.4000 240° Southwest 510 587 36,000  Level Gander Center
11:58AM 62.7667 -46.6833 249° West 510 587 36,000  Level Gander Center
11:59AM 62.7167 -46.9667 249° West 500 575 36,000  Level Gander Center
12:00PM 62.6500 -47.2167 240° Southwest 500 575 36,000  Level Gander Center
12:01PM 62.5833 -47.5000 243° Southwest 500 575 36,000  Level Gander Center
12:02PM 62.5167 -47.7833 243° Southwest 500 575 36,000  Level Gander Center
12:08PM 62.1590 -49.3590 243° Southwest 494 568 36,000  Level FlightAware
12:09PM 62.1190 -49.5200 242° Southwest 494 568 36,000  Level FlightAware
12:09PM 62.0820 -49.6690 242° Southwest 494 568 36,000  Level FlightAware
12:10PM 62.0490 -49.8050 243° Southwest 494 568 36,000  Level FlightAware
12:11PM 62.0110 -49.9540 242° Southwest 494 568 36,000  Level FlightAware
12:11PM 61.9600 -50.1640 243° Southwest 488 562 36,000  Level FlightAware
12:12PM 61.9220 -50.3260 244° Southwest 487 560 36,000  Level FlightAware
12:12PM 61.8890 -50.4610 243° Southwest 487 560 36,000  Level FlightAware
12:13PM 61.8530 -50.6040 242° Southwest 487 560 36,000  Level FlightAware
12:14PM 61.8200 -50.7360 242° Southwest 487 560 36,000  Level FlightAware
12:14PM 61.7870 -50.8690 242° Southwest 487 560 36,000  Level FlightAware
12:15PM 61.7540 -50.9970 241° Southwest 487 560 36,000  Level FlightAware
12:15PM 61.7220 -51.1260 242° Southwest 487 560 36,000  Level FlightAware
12:16PM 61.6900 -51.2540 242° Southwest 487 560 36,000  Level FlightAware
12:17PM 61.6550 -51.3930 242° Southwest 487 560 36,000  Level FlightAware
12:17PM 61.6220 -51.5210 242° Southwest 487 560 36,000  Level FlightAware
12:18PM 61.5900 -51.6490 242° Southwest 487 560 36,000  Level FlightAware
12:18PM 61.5570 -51.7770 242° Southwest 487 560 36,000  Level FlightAware
12:19PM 61.5250 -51.9050 242° Southwest 487 560 36,000  Level FlightAware
12:20PM 61.4920 -52.0360 242° Southwest 487 560 36,000  Level FlightAware
12:20PM 61.4590 -52.1630 242° Southwest 487 560 36,000  Level FlightAware
12:21PM 61.4260 -52.2940 242° Southwest 487 560 36,000  Level FlightAware
12:22PM 61.3930 -52.4250 242° Southwest 487 560 36,000  Level FlightAware
12:22PM 61.3600 -52.5520 242° Southwest 487 560 36,000  Level FlightAware
12:23PM 61.2333 -52.9500 242° Southwest 490 564 36,000  Level Gander Center
12:24PM 61.1667 -53.2167 243° Southwest 490 564 36,000  Level Gander Center
12:25PM 61.1000 -53.4333 238° Southwest 500 575 36,000  Level Gander Center
12:26PM 61.0333 -53.7000 243° Southwest 500 575 36,000  Level Gander Center
12:27PM 60.9500 -53.9500 236° Southwest 500 575 36,000  Level Gander Center
12:28PM 60.9000 -54.1667 245° Southwest 500 575 36,000  Level Gander Center
12:29PM 60.8333 -54.4167 241° Southwest 500 575 36,000  Level Gander Center
12:30PM 60.7667 -54.6833 243° Southwest 500 575 36,000  Level Gander Center
12:31PM 60.6833 -54.9000 232° Southwest 500 575 36,000  Level Gander Center
12:32PM 60.6167 -55.1500 242° Southwest 490 564 36,000  Level Gander Center
12:33PM 60.5500 -55.4000 242° Southwest 490 564 36,000  Level Gander Center
12:34PM 60.4667 -55.6167 232° Southwest 490 564 36,000  Level Gander Center
12:35PM 60.4000 -55.8667 242° Southwest 510 587 36,000  Level Gander Center
12:36PM 60.3000 -56.1167 231° Southwest 500 575 36,000  Level Gander Center
12:37PM 60.2500 -56.3167 243° Southwest 490 564 36,000  Level Gander Center
12:38PM 60.1833 -56.5667 242° Southwest 500 575 36,000  Level Gander Center
12:39PM 60.1167 -56.7833 238° Southwest 490 564 36,000  Level Gander Center
12:40PM 60.0333 -57.0167 235° Southwest 490 564 36,000  Level Gander Center
12:41PM 59.9500 -57.2333 233° Southwest 490 564 36,000  Level Gander Center
12:42PM 59.8833 -57.4667 240° Southwest 490 564 36,000  Level Gander Center
12:43PM 59.8000 -57.7167 237° Southwest 490 564 36,000  Level Gander Center
12:44PM 59.7333 -57.9167 237° Southwest 490 564 36,000  Level Gander Center
12:45PM 59.6000 -58.3167 237° Southwest 490 564 36,000  Level Gander Center
12:46PM 59.5500 -58.4167 225° Southwest 490 564 36,000  Level Montreal Center
12:47PM 59.5167 -58.6000 250° West 490 564 36,000  Level Gander Center
12:48PM 59.4333 -58.8333 235° Southwest 490 564 36,000  Level Gander Center
12:49PM 59.3500 -59.0333 231° Southwest 490 564 36,000  Level Gander Center
12:50PM 59.2667 -59.2667 235° Southwest 490 564 36,000  Level Gander Center
12:51PM 59.1333 -59.6333 235° Southwest 490 564 36,000  Level Gander Center
12:52PM 59.0833 -59.7333 226° Southwest 490 564 36,000  Level Montreal Center
12:53PM 59.0333 -59.8833 237° Southwest 490 564 36,000  Level Gander Center
12:54PM 58.9667 -60.1167 241° Southwest 480 552 36,000  Level Gander Center
12:55PM 58.9000 -60.3500 241° Southwest 480 552 36,000  Level Gander Center
12:56PM 58.8333 -60.5667 239° Southwest 480 552 36,000  Level Gander Center
12:57PM 58.7667 -60.7667 237° Southwest 480 552 36,000  Level Gander Center
12:58PM 58.7167 -61.0333 250° West 470 541 36,000  Level Gander Center
12:59PM 58.6333 -61.2500 234° Southwest 480 552 36,000  Level Gander Center
01:00PM 58.5667 -61.4667 240° Southwest 470 541 36,000  Level Gander Center
01:01PM 58.5167 -61.7000 248° West 470 541 36,000  Level Gander Center
01:02PM 58.4333 -61.8833 229° Southwest 470 541 36,000  Level Gander Center
01:03PM 58.3500 -62.0833 232° Southwest 490 564 36,000  Level Gander Center
01:04PM 58.2500 -62.2667 224° Southwest 490 564 36,000  Level Gander Center
01:05PM 58.1500 -62.4500 224° Southwest 490 564 36,000  Level Gander Center
01:06PM 58.0667 -62.6333 229° Southwest 490 564 36,000  Level Gander Center
01:07PM 57.9667 -62.8167 224° Southwest 480 552 36,000  Level Gander Center
01:08PM 57.8833 -62.9833 227° Southwest 480 552 36,000  Level Gander Center
01:09PM 57.7667 -63.1500 217° Southwest 480 552 36,000  Level Gander Center
01:10PM 57.6833 -63.3333 230° Southwest 480 552 36,000  Level Gander Center
01:11PM 57.5833 -63.4833 219° Southwest 480 552 36,000  Level Gander Center
01:12PM 57.5000 -63.6667 230° Southwest 490 564 36,000  Level Gander Center
01:13PM 57.4000 -63.8500 225° Southwest 480 552 36,000  Level Gander Center
01:14PM 57.2833 -64.0333 220° Southwest 470 541 36,000  Level Gander Center
01:15PM 57.2000 -64.2000 227° Southwest 460 529 36,000  Level Gander Center
01:16PM 57.1333 -64.3833 236° Southwest 450 518 36,000  Level Gander Center
01:17PM 57.0667 -64.5667 236° Southwest 450 518 36,000  Level Gander Center
01:18PM 57.0000 -64.7833 241° Southwest 440 506 36,000  Level Gander Center
01:19PM 56.9333 -64.9500 234° Southwest 430 495 36,000  Level Gander Center
01:20PM 56.8833 -65.1333 244° Southwest 430 495 36,000  Level Gander Center
01:21PM 56.8000 -65.3000 228° Southwest 430 495 36,000  Level Gander Center
01:22PM 56.7333 -65.4833 237° Southwest 430 495 36,000  Level Gander Center
01:23PM 56.6833 -65.6667 244° Southwest 430 495 36,000  Level Gander Center
01:24PM 56.6000 -65.8333 228° Southwest 430 495 36,000  Level Gander Center
01:25PM 56.5500 -66.0000 241° Southwest 430 495 36,000  Level Gander Center
01:26PM 56.4667 -66.2167 235° Southwest 420 483 36,000  Level Gander Center
01:27PM 56.4000 -66.3833 234° Southwest 430 495 36,000  Level Gander Center
01:28PM 56.3500 -66.5500 242° Southwest 430 495 36,000  Level Gander Center
01:29PM 56.2667 -66.7333 231° Southwest 430 495 36,000  Level Gander Center
01:30PM 56.2167 -66.9000 242° Southwest 420 483 36,000  Level Gander Center
01:31PM 56.1333 -67.0667 228° Southwest 430 495 36,000  Level Gander Center
01:32PM 56.0833 -67.2333 242° Southwest 430 495 36,000  Level Gander Center
01:33PM 56.0000 -67.4167 231° Southwest 420 483 36,000  Level Gander Center
01:34PM 55.9333 -67.6000 237° Southwest 420 483 36,000  Level Gander Center
01:35PM 55.8667 -67.7833 237° Southwest 430 495 36,000  Level Gander Center
01:36PM 55.8000 -67.9500 235° Southwest 420 483 36,000  Level Gander Center
01:37PM 55.7333 -68.1167 235° Southwest 420 483 36,000  Level Gander Center
01:38PM 55.6500 -68.2833 228° Southwest 420 483 36,000  Level Gander Center
01:39PM 55.6000 -68.4500 242° Southwest 420 483 36,000  Level Gander Center
01:40PM 55.5167 -68.6000 226° Southwest 420 483 36,000  Level Gander Center
01:41PM 55.4667 -68.7667 242° Southwest 410 472 36,000  Level Gander Center
01:42PM 55.3833 -68.9333 229° Southwest 410 472 36,000  Level Gander Center
01:43PM 55.3333 -69.0667 237° Southwest 410 472 36,000  Level Gander Center
01:44PM 55.2500 -69.2333 229° Southwest 420 483 36,000  Level Gander Center
01:45PM 55.1833 -69.4000 235° Southwest 420 483 36,000  Level Gander Center
01:46PM 55.1167 -69.5667 235° Southwest 420 483 36,000  Level Gander Center
01:47PM 55.0500 -69.7500 238° Southwest 420 483 36,000  Level Gander Center
01:48PM 54.9667 -69.9167 229° Southwest 420 483 36,000  Level Gander Center
01:49PM 54.9000 -70.0667 232° Southwest 420 483 36,000  Level Gander Center
01:50PM 54.8333 -70.2333 235° Southwest 420 483 36,000  Level Gander Center
01:51PM 54.7667 -70.4000 235° Southwest 420 483 36,000  Level Gander Center
01:52PM 54.6833 -70.5500 226° Southwest 420 483 36,000  Level Gander Center
01:53PM 54.6167 -70.7167 235° Southwest 420 483 36,000  Level Gander Center
01:54PM 54.5500 -70.8667 233° Southwest 420 483 36,000  Level Gander Center
01:55PM 54.4833 -71.0333 235° Southwest 420 483 36,000  Level Gander Center
01:56PM 54.4000 -71.2167 232° Southwest 420 483 36,000  Level Gander Center
01:57PM 54.3167 -71.3667 226° Southwest 420 483 36,000  Level Gander Center
01:58PM 54.2500 -71.5167 233° Southwest 420 483 36,000  Level Gander Center
01:59PM 54.1833 -71.6667 233° Southwest 420 483 36,000  Level Gander Center
02:00PM 54.1167 -71.8333 236° Southwest 420 483 36,000  Level Gander Center
02:01PM 54.0333 -71.9833 227° Southwest 420 483 36,000  Level Gander Center
02:02PM 53.9667 -72.1333 233° Southwest 420 483 36,000  Level Gander Center
02:03PM 53.8833 -72.2833 227° Southwest 430 495 36,000  Level Gander Center
02:04PM 53.8000 -72.4333 227° Southwest 430 495 36,000  Level Gander Center
02:05PM 53.7333 -72.5833 233° Southwest 430 495 36,000  Level Gander Center
02:06PM 53.6667 -72.7333 233° Southwest 430 495 36,000  Level Gander Center
02:07PM 53.6000 -72.9000 236° Southwest 430 495 36,000  Level Gander Center
02:08PM 53.5167 -73.0667 230° Southwest 430 495 36,000 300 Level Gander Center
02:09PM 53.4333 -73.2167 227° Southwest 420 483 36,600 660 Climbing Gander Center
02:10PM 53.3667 -73.3667 233° Southwest 410 472 37,400 660 Climbing Gander Center
02:11PM 53.2833 -73.5167 227° Southwest 410 472 38,000 300 Climbing Gander Center
02:12PM 53.2167 -73.6667 233° Southwest 420 483 38,000  Level Gander Center
02:13PM 53.1333 -73.8167 227° Southwest 420 483 38,000  Level Gander Center
02:14PM 53.0667 -73.9667 234° Southwest 420 483 38,000  Level Gander Center
02:15PM 52.9833 -74.1000 224° Southwest 420 483 38,000  Level Gander Center
02:16PM 52.9167 -74.2500 234° Southwest 430 495 38,000  Level Gander Center
02:17PM 52.8333 -74.4000 227° Southwest 430 495 38,000  Level Gander Center
02:18PM 52.7500 -74.5333 224° Southwest 430 495 38,000  Level Gander Center
02:19PM 52.6833 -74.6833 234° Southwest 430 495 38,000  Level Gander Center
02:20PM 52.6000 -74.8167 224° Southwest 430 495 38,000  Level Gander Center
02:21PM 52.5333 -75.0000 239° Southwest 430 495 38,000  Level Gander Center
02:22PM 52.4333 -75.1333 219° Southwest 430 495 38,000  Level Gander Center
02:23PM 52.3500 -75.3000 231° Southwest 430 495 38,000  Level Gander Center
02:24PM 52.2833 -75.4500 234° Southwest 430 495 38,000  Level Gander Center
02:25PM 52.2000 -75.5833 224° Southwest 430 495 38,000  Level Gander Center
02:26PM 52.1167 -75.7333 228° Southwest 430 495 38,000  Level Gander Center
02:27PM 52.0333 -75.8667 225° Southwest 430 495 38,000  Level Gander Center
02:28PM 51.9667 -76.0000 231° Southwest 430 495 38,000  Level Gander Center
02:29PM 51.8667 -76.1500 223° Southwest 420 483 38,000  Level Montreal Center
02:30PM 51.7667 -76.2833 220° Southwest 410 472 38,000  Level Montreal Center
02:31PM 51.6833 -76.4333 228° Southwest 410 472 38,000  Level Montreal Center
02:32PM 51.6167 -76.5833 234° Southwest 420 483 38,000  Level Montreal Center
02:33PM 51.5333 -76.7167 225° Southwest 410 472 38,000  Level Montreal Center
02:34PM 51.4500 -76.8500 225° Southwest 410 472 38,000  Level Montreal Center
02:35PM 51.3833 -76.9833 231° Southwest 410 472 38,000  Level Montreal Center
02:36PM 51.3000 -77.1167 225° Southwest 410 472 38,000  Level Montreal Center
02:37PM 51.2333 -77.2500 231° Southwest 410 472 38,000  Level Montreal Center
02:38PM 51.1500 -77.3833 225° Southwest 410 472 38,000  Level Montreal Center
02:39PM 51.0500 -77.5167 220° Southwest 410 472 38,000  Level Montreal Center
02:40PM 50.9667 -77.6833 232° Southwest 410 472 38,000  Level Montreal Center
02:41PM 50.9000 -77.7833 223° Southwest 410 472 38,000  Level Montreal Center
02:42PM 50.8333 -77.9167 232° Southwest 410 472 38,000  Level Montreal Center
02:43PM 50.7500 -78.0667 229° Southwest 410 472 38,000  Level Montreal Center
02:44PM 50.6833 -78.1667 224° Southwest 410 472 38,000  Level Montreal Center
02:45PM 50.5833 -78.3167 224° Southwest 410 472 38,000  Level Montreal Center
02:46PM 50.5000 -78.4500 226° Southwest 410 472 38,000  Level Montreal Center
02:47PM 50.4333 -78.5833 232° Southwest 410 472 38,000  Level Montreal Center
02:48PM 50.3500 -78.7000 222° Southwest 400 460 38,000  Level Montreal Center
02:49PM 50.2667 -78.8333 226° Southwest 410 472 38,000  Level Montreal Center
02:50PM 50.1833 -78.9667 226° Southwest 410 472 38,000  Level Montreal Center
02:51PM 50.1000 -79.0833 222° Southwest 410 472 38,000  Level Montreal Center
02:52PM 50.0333 -79.2167 232° Southwest 410 472 38,000  Level Montreal Center
02:53PM 49.9500 -79.3333 222° Southwest 420 483 38,000  Level Montreal Center
02:54PM 49.8500 -79.4667 221° Southwest 420 483 38,000  Level Montreal Center
02:55PM 49.7833 -79.5833 229° Southwest 410 472 38,000  Level Montreal Center
02:56PM 49.7000 -79.7333 229° Southwest 420 483 38,000  Level Montreal Center
02:57PM 49.6000 -79.8667 221° Southwest 410 472 38,000  Level Montreal Center
02:58PM 49.5333 -79.9833 229° Southwest 410 472 38,000  Level Montreal Center
02:59PM 49.4500 -80.1000 222° Southwest 410 472 38,000  Level Montreal Center
03:00PM 49.3500 -80.2333 221° Southwest 410 472 38,000  Level Montreal Center
03:01PM 49.2833 -80.3500 229° Southwest 410 472 38,000  Level Montreal Center
03:02PM 49.2000 -80.4667 222° Southwest 410 472 38,000  Level Montreal Center
03:03PM 49.1167 -80.6000 226° Southwest 410 472 38,000  Level Montreal Center
03:04PM 49.0333 -80.7167 223° Southwest 410 472 38,000  Level Montreal Center
03:06PM 48.8667 -80.9500 223° Southwest 400 460 38,000  Level Montreal Center
03:07PM 48.8000 -81.0667 229° Southwest 400 460 38,000  Level Montreal Center
03:08PM 48.7167 -81.1833 223° Southwest 400 460 38,000  Level Montreal Center
03:09PM 48.6333 -81.3167 227° Southwest 400 460 38,000  Level Montreal Center
03:10PM 48.5333 -81.4167 214° Southwest 400 460 38,000  Level Toronto Center
03:11PM 48.4667 -81.5500 233° Southwest 400 460 38,000  Level Montreal Center
03:12PM 48.3833 -81.6667 223° Southwest 400 460 38,000  Level Montreal Center
03:13PM 48.3167 -81.7500 220° Southwest 400 460 38,000 240 Level Montreal Center
03:19PM 47.7770 -82.3650 220° Southwest 392 451 40,000 240 Climbing FlightAware
03:20PM 47.7280 -82.4130 213° Southwest 391 450 40,000  Level FlightAware
03:20PM 47.6750 -82.4640 213° Southwest 391 450 40,000  Level FlightAware
03:21PM 47.6170 -82.5220 214° Southwest 388 447 40,000  Level FlightAware
03:22PM 47.5510 -82.5870 214° Southwest 387 445 40,000  Level FlightAware
03:22PM 47.5030 -82.6330 213° Southwest 386 444 40,000  Level FlightAware
03:23PM 47.4520 -82.6830 214° Southwest 386 444 40,000  Level FlightAware
03:23PM 47.4000 -82.7340 214° Southwest 387 445 40,000  Level FlightAware
03:24PM 47.3450 -82.7870 213° Southwest 389 448 40,000  Level FlightAware
03:25PM 47.2950 -82.8360 214° Southwest 389 448 40,000  Level FlightAware
03:25PM 47.2380 -82.8900 213° Southwest 387 445 40,000  Level FlightAware
03:26PM 47.1900 -82.9370 214° Southwest 387 445 40,000  Level FlightAware
03:26PM 47.1370 -82.9880 213° Southwest 386 444 40,000  Level FlightAware
03:27PM 47.0860 -83.0360 213° Southwest 384 442 40,000  Level FlightAware
03:28PM 47.0340 -83.0860 213° Southwest 383 441 40,000  Level FlightAware
03:28PM 46.9800 -83.1370 213° Southwest 381 438 40,000  Level FlightAware
03:29PM 46.9270 -83.1880 213° Southwest 380 437 40,000  Level FlightAware
03:29PM 46.8790 -83.2340 213° Southwest 379 436 40,000  Level FlightAware
03:30PM 46.8240 -83.2860 213° Southwest 378 435 40,000  Level FlightAware
03:30PM 46.7730 -83.3330 212° Southwest 378 435 40,000  Level FlightAware
03:31PM 46.7240 -83.3800 213° Southwest 378 435 40,000  Level FlightAware
03:32PM 46.6710 -83.4300 213° Southwest 377 434 40,000  Level FlightAware
03:32PM 46.6230 -83.4750 213° Southwest 376 433 40,000  Level FlightAware
03:33PM 46.5700 -83.5250 213° Southwest 376 433 40,000  Level FlightAware
03:33PM 46.5150 -83.5760 213° Southwest 376 433 40,000  Level FlightAware
03:34PM 46.4660 -83.6210 212° Southwest 376 433 40,000  Level FlightAware
03:34PM 46.4220 -83.6630 213° Southwest 376 433 40,000  Level FlightAware
03:35PM 46.3670 -83.7130 212° Southwest 375 432 40,000  Level FlightAware
03:36PM 46.3220 -83.7540 212° Southwest 375 432 40,000  Level FlightAware
03:36PM 46.2700 -83.8030 213° Southwest 376 433 40,000  Level FlightAware
03:37PM 46.2170 -83.8520 213° Southwest 376 433 40,000  Level FlightAware
03:37PM 46.1660 -83.8990 213° Southwest 376 433 40,000  Level FlightAware
03:38PM 46.1190 -83.9420 212° Southwest 377 434 40,000  Level FlightAware
03:39PM 46.0660 -83.9910 213° Southwest 378 435 40,000  Level FlightAware
03:39PM 46.0180 -84.0340 212° Southwest 379 436 40,000  Level FlightAware
03:40PM 45.9610 -84.0860 212° Southwest 378 435 40,000  Level FlightAware
03:40PM 45.9090 -84.1350 213° Southwest 380 437 40,000  Level FlightAware
03:41PM 45.8600 -84.1790 212° Southwest 381 438 40,000  Level FlightAware
03:41PM 45.8080 -84.2260 212° Southwest 381 438 40,000  Level FlightAware
03:42PM 45.7550 -84.2740 212° Southwest 382 440 40,000  Level FlightAware
03:43PM 45.7080 -84.3160 212° Southwest 382 440 40,000  Level FlightAware
03:43PM 45.6500 -84.3690 213° Southwest 382 440 40,000  Level FlightAware
03:44PM 45.5960 -84.4180 212° Southwest 383 441 40,000  Level FlightAware
03:44PM 45.5470 -84.4620 212° Southwest 384 442 40,000  Level FlightAware
03:45PM 45.4930 -84.5100 212° Southwest 384 442 40,000  Level FlightAware
03:46PM 45.4400 -84.5570 212° Southwest 384 442 40,000  Level FlightAware
03:46PM 45.3920 -84.6000 212° Southwest 383 441 40,000  Level FlightAware
03:47PM 45.3350 -84.6510 212° Southwest 385 443 40,000  Level FlightAware
03:47PM 45.2790 -84.6970 210° Southwest 391 450 40,000  Level FlightAware
03:48PM 45.2230 -84.7200 196° South 401 461 40,000 -180 Level FlightAware
03:48PM 45.1600 -84.7410 193° South 401 461 39,800 -900 Descending FlightAware
03:49PM 45.0960 -84.7620 193° South 405 466 39,000 -1,200 Descending FlightAware
03:50PM 45.0400 -84.7800 193° South 407 468 38,500 -1,020 Descending FlightAware
03:50PM 44.9640 -84.8050 193° South 408 470 37,800 -1,020 Descending FlightAware
03:51PM 44.8950 -84.8280 193° South 411 473 37,200 -1,020 Descending FlightAware
03:51PM 44.8390 -84.8470 194° South 413 475 36,700 -1,080 Descending FlightAware
03:52PM 44.7710 -84.8690 193° South 414 476 36,000 -1,140 Descending FlightAware
03:53PM 44.7020 -84.8920 193° South 415 478 35,300 -1,080 Descending FlightAware
03:53PM 44.6460 -84.9100 193° South 414 476 34,800 -1,320 Descending FlightAware
03:54PM 44.5580 -84.9390 193° South 417 480 33,700 -1,380 Descending FlightAware
03:54PM 44.4960 -84.9590 193° South 420 483 33,000 -1,380 Descending FlightAware
03:55PM 44.4300 -84.9800 193° South 424 488 32,200 -1,320 Descending FlightAware
03:56PM 44.3620 -85.0020 193° South 426 490 31,500 -1,260 Descending FlightAware
03:56PM 44.2990 -85.0220 193° South 427 491 30,800 -1,320 Descending FlightAware
03:57PM 44.2280 -85.0450 193° South 429 494 30,000 -660 Descending FlightAware
03:57PM 44.1570 -85.0680 193° South 429 494 30,000  Level FlightAware
03:58PM 44.0860 -85.0910 193° South 431 496 30,000  Level FlightAware
03:58PM 44.0220 -85.1110 193° South 431 496 30,000  Level FlightAware
03:59PM 43.9540 -85.1330 193° South 430 495 30,000  Level FlightAware
04:00PM 43.8880 -85.1540 193° South 430 495 30,000  Level FlightAware
04:00PM 43.8130 -85.1780 193° South 432 497 30,000  Level FlightAware
04:01PM 43.7520 -85.1970 193° South 432 497 30,000  Level FlightAware
04:01PM 43.6800 -85.2190 192° South 432 497 30,000  Level FlightAware
04:02PM 43.6100 -85.2420 193° South 433 498 30,000  Level FlightAware
04:03PM 43.5410 -85.2630 192° South 434 499 30,000  Level FlightAware
04:03PM 43.4780 -85.2830 193° South 435 501 30,000 -120 Level FlightAware
04:04PM 43.4110 -85.3040 193° South 417 480 29,900 -120 Descending FlightAware
04:04PM 43.3450 -85.3240 192° South 376 433 29,900 -480 Level FlightAware
04:05PM 43.2920 -85.3410 193° South 359 413 29,400 -780 Descending FlightAware
04:06PM 43.2310 -85.3600 193° South 334 384 29,000 -360 Descending FlightAware
04:06PM 43.1800 -85.3760 193° South 330 380 29,000  Level FlightAware
04:07PM 43.1310 -85.3910 193° South 331 381 29,000  Level FlightAware
04:07PM 43.0760 -85.4080 193° South 332 382 29,000  Level FlightAware
04:08PM 43.0330 -85.4270 198° South 332 382 29,000  Level FlightAware
04:08PM 43.0090 -85.4490 214° Southwest 332 382 29,000  Level FlightAware
04:08PM 42.9930 -85.4710 225° Southwest 330 380 29,000  Level FlightAware
04:09PM 42.9670 -85.5300 239° Southwest 332 382 29,000 -300 Level FlightAware
04:09PM 42.9390 -85.5960 240° Southwest 327 376 28,700 -960 Descending FlightAware
04:10PM 42.9130 -85.6560 239° Southwest 324 373 27,900 -1,500 Descending FlightAware
04:11PM 42.8870 -85.7180 240° Southwest 321 369 27,000 -1,500 Descending FlightAware
04:12PM 42.8460 -85.8110 239° Southwest 316 364 25,700 -1,680 Descending FlightAware
04:12PM 42.8200 -85.8710 239° Southwest 346 398 24,600 -1,800 Descending FlightAware
04:13PM 42.7940 -85.9320 240° Southwest 359 413 23,800 -1,680 Descending FlightAware
04:13PM 42.7590 -86.0120 239° Southwest 373 429 22,600 -1,560 Descending FlightAware
04:14PM 42.7290 -86.0810 239° Southwest 373 429 21,900 -1,260 Descending FlightAware
04:14PM 42.6970 -86.1530 239° Southwest 369 425 21,200 -1,140 Descending FlightAware
04:15PM 42.6690 -86.2170 239° Southwest 367 422 20,600 -1,440 Descending FlightAware
04:16PM 42.6430 -86.2910 244° Southwest 372 428 19,600 -1,500 Descending FlightAware
04:16PM 42.6280 -86.3640 254° West 366 421 18,900 -1,320 Descending FlightAware
04:17PM 42.6140 -86.4410 256° West 357 411 18,100 -1,500 Descending FlightAware
04:17PM 42.5990 -86.5250 256° West 353 406 17,100 -1,620 Descending FlightAware
04:18PM 42.5850 -86.5960 255° West 350 403 16,200 -1,620 Descending FlightAware
04:18PM 42.5710 -86.6690 255° West 344 396 15,300 -1,560 Descending FlightAware
04:19PM 42.5550 -86.7450 254° West 337 388 14,400 -1,500 Descending FlightAware
04:20PM 42.5380 -86.8080 250° West 331 381 13,600 -1,560 Descending FlightAware
04:20PM 42.5190 -86.8780 250° West 326 375 12,600 -1,560 Descending FlightAware
04:21PM 42.5020 -86.9410 250° West 320 368 11,800 -1,620 Descending FlightAware
04:21PM 42.4830 -87.0100 250° West 318 366 10,800 -1,260 Descending FlightAware
04:22PM 42.4660 -87.0740 250° West 297 342 10,300 -600 Descending FlightAware
04:23PM 42.4500 -87.1320 250° West 284 327 10,100 -540 Descending FlightAware
04:23PM 42.4390 -87.1710 249° West 267 307 9,800 -840 Descending FlightAware
04:23PM 42.4300 -87.2030 249° West 264 304 9,500 -900 Descending FlightAware
04:24PM 42.4220 -87.2330 250° West 265 305 9,200 -1,200 Descending FlightAware
04:24PM 42.4150 -87.2570 248° West 264 304 8,800 -1,320 Descending FlightAware
04:24PM 42.4070 -87.2830 247° West 264 304 8,500 -1,200 Descending FlightAware
04:24PM 42.4000 -87.2960 234° Southwest 264 304 8,300 -1,380 Descending FlightAware
04:24PM 42.3920 -87.3030 213° Southwest 268 308 8,100 -1,200 Descending FlightAware
04:25PM 42.3780 -87.3090 198° South 273 314 7,900 -1,200 Descending FlightAware
04:25PM 42.3590 -87.3110 184° South 275 316 7,600 -1,140 Descending FlightAware
04:25PM 42.3330 -87.3130 183° South 275 316 7,200 -1,020 Descending FlightAware
04:26PM 42.3080 -87.3150 183° South 273 314 6,900 -900 Descending FlightAware
04:26PM 42.2790 -87.3170 183° South 271 312 6,600 -840 Descending FlightAware
04:26PM 42.2600 -87.3190 184° South 271 312 6,400 -840 Descending FlightAware
04:27PM 42.2330 -87.3210 183° South 271 312 6,100 -600 Descending FlightAware
04:27PM 42.2200 -87.3220 183° South 273 314 6,100  Level FlightAware
04:27PM 42.1900 -87.3250 184° South 271 312 6,100  Level FlightAware
04:27PM 42.1630 -87.3270 183° South 271 312 6,100  Level FlightAware
04:28PM 42.1190 -87.3260 179° South 273 314 6,100 -120 Level FlightAware
04:28PM 42.0920 -87.3220 174° South 272 313 6,000 -480 Descending FlightAware
04:29PM 42.0700 -87.3180 172° South 273 314 5,800 -780 Descending FlightAware
04:29PM 42.0420 -87.3140 174° South 273 314 5,500 -780 Descending FlightAware
04:30PM 41.9990 -87.3250 191° South 263 303 5,100 -600 Descending FlightAware
04:30PM 41.9930 -87.3330 225° Southwest 258 297 5,100  Level FlightAware
04:30PM 41.9890 -87.3420 239° Southwest 257 296 5,100  Level FlightAware
04:30PM 41.9780 -87.3730 244° Southwest 255 293 5,100  Level FlightAware
04:30PM 41.9720 -87.3910 246° West 255 293 5,100  Level FlightAware
04:31PM 41.9690 -87.4010 248° West 254 292 5,100  Level FlightAware
04:31PM 41.9690 -87.4110 270° West 253 291 5,100  Level FlightAware
04:31PM 41.9690 -87.4660 270° West 217 250 5,100  Level FlightAware
04:32PM 41.9690 -87.4940 270° West 212 244 5,100  Level FlightAware
04:32PM 41.9690 -87.5100 270° West 211 243 5,100  Level FlightAware
04:32PM 41.9690 -87.5330 270° West 211 243 5,100  Level FlightAware
04:33PM 41.9690 -87.5610 270° West 204 235 5,100 -180 Level FlightAware
04:33PM 41.9690 -87.5880 270° West 188 216 5,000 -420 Descending FlightAware
04:33PM 41.9690 -87.6110 270° West 181 208 4,800 -840 Descending FlightAware
04:34PM 41.9690 -87.6300 270° West 174 200 4,500 -1,020 Descending FlightAware
04:34PM 41.9690 -87.6510 270° West 174 200 4,200 -900 Descending FlightAware
04:34PM 41.9690 -87.6670 270° West 172 198 4,000 -1,080 Descending FlightAware
04:35PM 41.9690 -87.6940 270° West 173 199 3,500 -1,020 Descending FlightAware
04:35PM 41.9690 -87.7180 270° West 175 201 3,200 -960 Descending FlightAware
04:35PM 41.9690 -87.7290 270° West 176 203 3,000 -840 Descending FlightAware
04:36PM 41.9690 -87.7570 270° West 170 196 2,700 -960 Descending FlightAware
04:36PM 41.9690 -87.7770 270° West 164 189 2,300 -1,020 Descending FlightAware
04:36PM 41.9690 -87.7940 270° West 161 185 2,100 -840 Descending FlightAware
04:36PM 41.9690 -87.8120 270° West 148 170 1,800 -780 Descending FlightAware
04:37PM 41.9690 -87.8350 270° West 135 155 1,500 -660 Descending FlightAware
04:37PM 41.9690 -87.8520 270° West 137 158 1,300 -720 Descending FlightAware
04:38PM 41.9690 -87.8660 270° West 138 159 1,100 -900 Descending FlightAware
04:38PM 41.9690 -87.8890 270° West 135 155 700 -480 Descending FlightAware
04:38PM 41.9690 -87.9070 270° West 135 155 700  Level FlightAware